createdAt,value
2022-11-29T07:45:18.993Z,15.63
2022-11-29T07:45:30.303Z,15.65
2022-11-29T07:45:41.851Z,15.70
2022-11-29T07:45:53.146Z,15.72
2022-11-29T07:46:04.695Z,15.74
2022-11-29T07:46:16.069Z,15.76
2022-11-29T07:46:27.699Z,15.77
2022-11-29T07:46:39.044Z,15.78
2022-11-29T07:46:50.699Z,15.80
2022-11-29T07:47:02.098Z,15.80
2022-11-29T07:47:13.729Z,15.82
2022-11-29T07:47:25.008Z,15.83
2022-11-29T07:47:36.551Z,15.84
2022-11-29T07:47:47.837Z,15.85
2022-11-29T07:47:59.384Z,15.87
2022-11-29T07:48:10.684Z,15.87
2022-11-29T07:48:22.243Z,15.89
2022-11-29T07:48:33.532Z,15.90
2022-11-29T07:48:45.065Z,15.91
2022-11-29T07:48:56.346Z,15.92
2022-11-29T07:49:07.896Z,15.93
2022-11-29T07:49:19.184Z,15.94
2022-11-29T07:49:30.726Z,15.95
2022-11-29T07:49:42.015Z,15.95
2022-11-29T07:49:53.569Z,15.96
2022-11-29T07:50:04.861Z,15.97
2022-11-29T07:50:16.405Z,15.98
2022-11-29T07:50:27.736Z,15.98
2022-11-29T07:50:39.325Z,16.00
2022-11-29T07:50:50.594Z,16.00
2022-11-29T07:51:02.136Z,16.02
2022-11-29T07:51:13.419Z,16.02
2022-11-29T07:51:24.953Z,16.03
2022-11-29T07:51:36.236Z,16.04
2022-11-29T07:51:47.783Z,16.04
2022-11-29T07:51:59.073Z,16.05
2022-11-29T07:52:10.629Z,16.06
2022-11-29T07:52:21.919Z,16.06
2022-11-29T07:52:33.457Z,16.08
2022-11-29T07:52:44.750Z,16.08
2022-11-29T07:52:56.305Z,16.09
2022-11-29T07:53:07.590Z,16.09
2022-11-29T07:53:19.134Z,16.09
2022-11-29T07:53:30.427Z,16.10
2022-11-29T07:53:41.972Z,16.10
2022-11-29T07:53:53.247Z,16.11
2022-11-29T07:54:04.786Z,16.11
2022-11-29T07:54:16.093Z,16.12
2022-11-29T07:54:27.631Z,16.12
2022-11-29T07:54:38.908Z,16.13
2022-11-29T07:54:50.450Z,16.13
2022-11-29T07:55:01.732Z,16.13
2022-11-29T07:55:18.468Z,16.14
2022-11-29T07:55:25.192Z,16.13
2022-11-29T07:55:36.503Z,16.13
2022-11-29T07:55:48.042Z,16.14
2022-11-29T07:55:59.324Z,16.14
2022-11-29T07:56:10.873Z,16.15
2022-11-29T07:56:22.153Z,16.15
2022-11-29T07:56:33.695Z,16.16
2022-11-29T07:56:44.990Z,16.16
2022-11-29T07:56:56.548Z,16.16
2022-11-29T07:57:07.842Z,16.16
2022-11-29T07:57:19.395Z,16.17
2022-11-29T07:57:31.592Z,16.17
2022-11-29T07:57:40.759Z,16.16
2022-11-29T07:57:52.289Z,16.16
2022-11-29T07:58:03.567Z,16.17
2022-11-29T07:58:15.098Z,16.17
2022-11-29T07:58:26.426Z,16.18
2022-11-29T07:58:38.081Z,16.17
2022-11-29T07:58:49.496Z,16.17
2022-11-29T07:59:01.075Z,16.18
2022-11-29T07:59:12.393Z,16.18
2022-11-29T07:59:23.939Z,16.17
2022-11-29T07:59:35.234Z,16.18
2022-11-29T07:59:47.091Z,16.18
2022-11-29T07:59:58.794Z,16.19
2022-11-29T08:00:10.080Z,16.19
2022-11-29T08:00:21.653Z,16.19
2022-11-29T08:00:32.986Z,16.18
2022-11-29T08:00:44.770Z,16.19
2022-11-29T08:00:56.189Z,16.18
2022-11-29T08:01:07.862Z,16.19
2022-11-29T08:01:19.184Z,16.19
2022-11-29T08:01:30.771Z,16.19
2022-11-29T08:01:42.103Z,16.19
2022-11-29T08:01:53.707Z,16.20
2022-11-29T08:02:11.307Z,16.19
2022-11-29T08:02:16.961Z,16.16
2022-11-29T08:02:28.351Z,16.18
2022-11-29T08:02:39.953Z,16.19
2022-11-29T08:02:51.276Z,16.18
2022-11-29T08:03:02.830Z,16.19
2022-11-29T08:03:14.110Z,16.19
2022-11-29T08:03:25.656Z,16.19
2022-11-29T08:03:36.944Z,16.19
2022-11-29T08:03:48.528Z,16.20
2022-11-29T08:03:59.811Z,16.19
2022-11-29T08:04:11.372Z,16.19
2022-11-29T08:04:22.667Z,16.19
2022-11-29T08:04:34.209Z,16.19
2022-11-29T08:04:45.812Z,16.20
2022-11-29T08:04:57.528Z,16.19
2022-11-29T08:05:08.815Z,16.19
2022-11-29T08:05:20.358Z,16.19
2022-11-29T08:05:31.639Z,16.19
2022-11-29T08:05:43.182Z,16.19
2022-11-29T08:05:54.521Z,16.19
2022-11-29T08:06:06.077Z,16.19
2022-11-29T08:06:17.373Z,16.19
2022-11-29T08:06:28.917Z,16.19
2022-11-29T08:06:40.199Z,16.18
2022-11-29T08:06:51.752Z,16.19
2022-11-29T08:07:03.050Z,16.19
2022-11-29T08:07:14.758Z,16.19
2022-11-29T08:07:26.161Z,16.18
2022-11-29T08:07:37.798Z,16.18
2022-11-29T08:07:49.149Z,16.18
2022-11-29T08:08:00.796Z,16.18
2022-11-29T08:08:12.100Z,16.18
2022-11-29T08:08:23.641Z,16.17
2022-11-29T08:08:37.829Z,16.18
2022-11-29T08:08:46.852Z,16.15
2022-11-29T08:08:58.156Z,16.16
2022-11-29T08:09:09.700Z,16.16
2022-11-29T08:09:21.006Z,16.15
2022-11-29T08:09:32.548Z,16.16
2022-11-29T08:09:44.323Z,16.16
2022-11-29T08:09:56.089Z,16.16
2022-11-29T08:10:07.372Z,16.16
2022-11-29T08:10:18.917Z,16.16
2022-11-29T08:10:30.198Z,16.15
2022-11-29T08:10:41.742Z,16.16
2022-11-29T08:10:53.040Z,16.15
2022-11-29T08:11:04.610Z,16.15
2022-11-29T08:11:15.892Z,16.15
2022-11-29T08:11:27.444Z,16.15
2022-11-29T08:11:38.737Z,16.15
2022-11-29T08:11:50.272Z,16.15
2022-11-29T08:12:01.543Z,16.15
2022-11-29T08:12:13.079Z,16.15
2022-11-29T08:12:24.349Z,16.15
2022-11-29T08:12:35.894Z,16.15
2022-11-29T08:12:47.186Z,16.14
2022-11-29T08:12:58.730Z,16.15
2022-11-29T08:13:10.007Z,16.15
2022-11-29T08:13:21.553Z,16.15
2022-11-29T08:13:32.830Z,16.15
2022-11-29T08:13:44.365Z,16.15
2022-11-29T08:13:55.660Z,16.14
2022-11-29T08:14:07.206Z,16.15
2022-11-29T08:14:18.489Z,16.14
2022-11-29T08:14:30.035Z,16.15
2022-11-29T08:14:41.317Z,16.15
2022-11-29T08:14:52.865Z,16.15
2022-11-29T08:15:04.161Z,16.15
2022-11-29T08:15:15.723Z,16.15
2022-11-29T08:15:27.034Z,16.15
2022-11-29T08:15:38.561Z,16.15
2022-11-29T08:15:49.843Z,16.15
2022-11-29T08:16:01.409Z,16.16
2022-11-29T08:16:12.795Z,16.15
2022-11-29T08:16:24.458Z,16.15
2022-11-29T08:16:35.869Z,16.15
2022-11-29T08:16:47.489Z,16.15
2022-11-29T08:16:58.821Z,16.16
2022-11-29T08:17:10.375Z,16.16
2022-11-29T08:17:21.661Z,16.16
2022-11-29T08:17:33.204Z,16.16
2022-11-29T08:17:44.503Z,16.16
2022-11-29T08:17:56.052Z,16.16
2022-11-29T08:18:07.338Z,16.16
2022-11-29T08:18:18.883Z,16.15
2022-11-29T08:18:30.159Z,16.16
2022-11-29T08:18:41.702Z,16.16
2022-11-29T08:18:52.994Z,16.16
2022-11-29T08:19:04.555Z,16.15
2022-11-29T08:19:15.828Z,16.16
2022-11-29T08:19:27.367Z,16.16
2022-11-29T08:19:38.647Z,16.16
2022-11-29T08:19:50.184Z,16.16
2022-11-29T08:20:04.294Z,16.16
2022-11-29T08:20:11.595Z,16.14
2022-11-29T08:20:22.897Z,16.15
2022-11-29T08:20:34.435Z,16.16
2022-11-29T08:20:45.707Z,16.16
2022-11-29T08:20:57.250Z,16.16
2022-11-29T08:21:08.546Z,16.16
2022-11-29T08:21:20.144Z,16.16
2022-11-29T08:21:31.424Z,16.15
2022-11-29T08:21:42.976Z,16.15
2022-11-29T08:21:54.287Z,16.16
2022-11-29T08:22:05.842Z,16.15
2022-11-29T08:22:17.132Z,16.15
2022-11-29T08:22:28.680Z,16.15
2022-11-29T08:22:39.975Z,16.14
2022-11-29T08:22:51.530Z,16.16
2022-11-29T08:23:02.826Z,16.15
2022-11-29T08:23:14.382Z,16.15
2022-11-29T08:23:25.670Z,16.15
2022-11-29T08:23:37.207Z,16.15
2022-11-29T08:23:48.494Z,16.15
2022-11-29T08:24:00.038Z,16.15
2022-11-29T08:24:11.314Z,16.15
2022-11-29T08:24:22.848Z,16.15
2022-11-29T08:24:34.140Z,16.14
2022-11-29T08:24:45.961Z,16.15
2022-11-29T08:24:57.712Z,16.15
2022-11-29T08:25:09.014Z,16.16
2022-11-29T08:25:20.549Z,16.14
2022-11-29T08:25:31.840Z,16.15
2022-11-29T08:25:43.405Z,16.15
2022-11-29T08:25:54.683Z,16.14
2022-11-29T08:26:06.212Z,16.14
2022-11-29T08:26:17.499Z,16.15
2022-11-29T08:26:31.650Z,16.14
2022-11-29T08:26:39.109Z,16.14
2022-11-29T08:26:50.405Z,16.14
2022-11-29T08:27:01.959Z,16.14
2022-11-29T08:27:13.243Z,16.14
2022-11-29T08:27:24.778Z,16.14
2022-11-29T08:27:36.068Z,16.14
2022-11-29T08:27:47.630Z,16.14
2022-11-29T08:27:58.915Z,16.14
2022-11-29T08:28:10.462Z,16.14
2022-11-29T08:28:21.744Z,16.13
2022-11-29T08:28:33.298Z,16.13
2022-11-29T08:28:44.593Z,16.14
2022-11-29T08:28:56.136Z,16.14
2022-11-29T08:29:07.411Z,16.14
2022-11-29T08:29:18.950Z,16.13
2022-11-29T08:29:30.230Z,16.14
2022-11-29T08:29:41.758Z,16.13
2022-11-29T08:29:53.043Z,16.13
2022-11-29T08:30:04.621Z,16.13
2022-11-29T08:30:15.914Z,16.13
2022-11-29T08:30:27.458Z,16.13
2022-11-29T08:30:38.753Z,16.13
2022-11-29T08:30:50.281Z,16.13
2022-11-29T08:31:01.565Z,16.14
2022-11-29T08:31:13.211Z,16.13
2022-11-29T08:31:24.744Z,16.13
2022-11-29T08:31:36.412Z,16.14
2022-11-29T08:31:47.744Z,16.13
2022-11-29T08:31:59.413Z,16.13
2022-11-29T08:32:10.790Z,16.13
2022-11-29T08:32:22.344Z,16.13
2022-11-29T08:32:33.632Z,16.14
2022-11-29T08:32:51.104Z,16.14
2022-11-29T08:32:57.096Z,16.12
2022-11-29T08:33:08.381Z,16.13
2022-11-29T08:33:19.923Z,16.13
2022-11-29T08:33:31.199Z,16.14
2022-11-29T08:33:42.735Z,16.14
2022-11-29T08:33:54.015Z,16.14
2022-11-29T08:34:05.565Z,16.14
2022-11-29T08:34:16.851Z,16.14
2022-11-29T08:34:28.385Z,16.14
2022-11-29T08:34:39.656Z,16.14
2022-11-29T08:34:51.188Z,16.15
2022-11-29T08:35:02.470Z,16.15
2022-11-29T08:35:14.053Z,16.15
2022-11-29T08:35:25.338Z,16.15
2022-11-29T08:35:36.880Z,16.15
2022-11-29T08:35:48.248Z,16.15
2022-11-29T08:35:59.800Z,16.15
2022-11-29T08:36:11.091Z,16.15
2022-11-29T08:36:22.636Z,16.16
2022-11-29T08:36:33.954Z,16.16
2022-11-29T08:36:45.547Z,16.16
2022-11-29T08:36:56.835Z,16.16
2022-11-29T08:37:08.367Z,16.16
2022-11-29T08:37:19.653Z,16.17
2022-11-29T08:37:31.201Z,16.17
2022-11-29T08:37:42.496Z,16.17
2022-11-29T08:37:54.040Z,16.17
2022-11-29T08:38:05.315Z,16.17
2022-11-29T08:38:16.856Z,16.17
2022-11-29T08:38:28.138Z,16.17
2022-11-29T08:38:39.678Z,16.17
2022-11-29T08:38:54.169Z,16.18
2022-11-29T08:39:08.915Z,16.15
2022-11-29T08:39:14.808Z,16.15
2022-11-29T08:39:26.094Z,16.17
2022-11-29T08:39:37.636Z,16.17
2022-11-29T08:39:48.921Z,16.18
2022-11-29T08:40:00.465Z,16.18
2022-11-29T08:40:11.742Z,16.19
2022-11-29T08:40:23.435Z,16.19
2022-11-29T08:40:34.830Z,16.19
2022-11-29T08:40:46.384Z,16.20
2022-11-29T08:40:57.672Z,16.19
2022-11-29T08:41:09.205Z,16.20
2022-11-29T08:41:20.488Z,16.20
2022-11-29T08:41:32.035Z,16.21
2022-11-29T08:41:43.308Z,16.21
2022-11-29T08:41:54.887Z,16.20
2022-11-29T08:42:06.169Z,16.21
2022-11-29T08:42:17.741Z,16.21
2022-11-29T08:42:29.036Z,16.22
2022-11-29T08:42:40.580Z,16.22
2022-11-29T08:42:51.875Z,16.22
2022-11-29T08:43:03.430Z,16.22
2022-11-29T08:43:14.717Z,16.22
2022-11-29T08:43:26.254Z,16.23
2022-11-29T08:43:37.532Z,16.22
2022-11-29T08:43:49.067Z,16.23
2022-11-29T08:44:00.339Z,16.24
2022-11-29T08:44:11.878Z,16.23
2022-11-29T08:44:23.161Z,16.24
2022-11-29T08:44:34.698Z,16.24
2022-11-29T08:44:46.442Z,16.24
2022-11-29T08:44:58.077Z,16.24
2022-11-29T08:45:09.354Z,16.24
2022-11-29T08:45:20.887Z,16.25
2022-11-29T08:45:32.229Z,16.25
2022-11-29T08:45:43.896Z,16.26
2022-11-29T08:45:55.282Z,16.25
2022-11-29T08:46:06.886Z,16.25
2022-11-29T08:46:19.051Z,16.26
2022-11-29T08:46:28.360Z,16.26
2022-11-29T08:46:39.897Z,16.26
2022-11-29T08:46:51.180Z,16.27
2022-11-29T08:47:02.840Z,16.27
2022-11-29T08:47:14.125Z,16.27
2022-11-29T08:47:25.675Z,16.27
2022-11-29T08:47:36.965Z,16.28
2022-11-29T08:47:48.511Z,16.28
2022-11-29T08:47:59.794Z,16.28
2022-11-29T08:48:11.339Z,16.29
2022-11-29T08:48:22.627Z,16.29
2022-11-29T08:48:34.165Z,16.29
2022-11-29T08:48:45.463Z,16.29
2022-11-29T08:48:57.000Z,16.30
2022-11-29T08:49:08.288Z,16.30
2022-11-29T08:49:19.831Z,16.30
2022-11-29T08:49:31.110Z,16.30
2022-11-29T08:49:42.643Z,16.30
2022-11-29T08:49:53.925Z,16.31
2022-11-29T08:50:05.472Z,16.30
2022-11-29T08:50:16.761Z,16.31
2022-11-29T08:50:28.296Z,16.31
2022-11-29T08:50:39.570Z,16.32
2022-11-29T08:50:51.110Z,16.32
2022-11-29T08:51:02.396Z,16.31
2022-11-29T08:51:13.942Z,16.33
2022-11-29T08:51:25.233Z,16.33
2022-11-29T08:51:36.779Z,16.33
2022-11-29T08:51:48.058Z,16.34
2022-11-29T08:51:59.602Z,16.34
2022-11-29T08:52:10.928Z,16.33
2022-11-29T08:52:22.471Z,16.34
2022-11-29T08:52:33.749Z,16.34
2022-11-29T08:52:45.288Z,16.35
2022-11-29T08:52:56.571Z,16.35
2022-11-29T08:53:08.127Z,16.35
2022-11-29T08:53:19.432Z,16.35
2022-11-29T08:53:30.975Z,16.36
2022-11-29T08:53:42.296Z,16.36
2022-11-29T08:53:53.857Z,16.36
2022-11-29T08:54:05.144Z,16.36
2022-11-29T08:54:16.693Z,16.37
2022-11-29T08:54:27.972Z,16.36
2022-11-29T08:54:39.535Z,16.37
2022-11-29T08:54:50.829Z,16.37
2022-11-29T08:55:03.457Z,16.37
2022-11-29T08:55:12.719Z,16.39
2022-11-29T08:55:24.249Z,16.38
2022-11-29T08:55:35.525Z,16.38
2022-11-29T08:55:47.065Z,16.39
2022-11-29T08:55:58.347Z,16.39
2022-11-29T08:56:49.330Z,16.39
2022-11-29T08:57:10.094Z,16.38
2022-11-29T08:57:10.593Z,16.37
2022-11-29T08:57:31.507Z,16.37
2022-11-29T08:57:41.323Z,16.36
2022-11-29T08:57:45.442Z,16.36
2022-11-29T08:57:56.734Z,16.37
2022-11-29T08:58:08.289Z,16.39
2022-11-29T08:58:19.573Z,16.39
2022-11-29T08:58:31.107Z,16.40
2022-11-29T08:58:42.393Z,16.40
2022-11-29T08:58:53.945Z,16.41
2022-11-29T08:59:05.239Z,16.41
2022-11-29T08:59:16.816Z,16.41
2022-11-29T08:59:28.104Z,16.42
2022-11-29T08:59:39.655Z,16.42
2022-11-29T08:59:50.941Z,16.42
2022-11-29T09:00:02.487Z,16.43
2022-11-29T09:00:13.779Z,16.43
2022-11-29T09:00:25.337Z,16.43
2022-11-29T09:00:36.630Z,16.43
2022-11-29T09:00:48.245Z,16.44
2022-11-29T09:00:59.655Z,16.44
2022-11-29T09:01:11.275Z,16.44
2022-11-29T09:01:22.681Z,16.44
2022-11-29T09:01:34.415Z,16.45
2022-11-29T09:01:45.850Z,16.45
2022-11-29T09:01:57.515Z,16.45
2022-11-29T09:02:08.897Z,16.46
2022-11-29T09:02:20.560Z,16.46
2022-11-29T09:02:31.973Z,16.46
2022-11-29T09:02:43.600Z,16.46
2022-11-29T09:02:54.939Z,16.47
2022-11-29T09:03:06.489Z,16.47
2022-11-29T09:03:17.776Z,16.47
2022-11-29T09:03:29.331Z,16.47
2022-11-29T09:03:40.621Z,16.48
2022-11-29T09:03:52.170Z,16.48
2022-11-29T09:04:03.443Z,16.48
2022-11-29T09:04:14.990Z,16.48
2022-11-29T09:04:26.291Z,16.48
2022-11-29T09:04:37.823Z,16.49
2022-11-29T09:04:49.111Z,16.50
2022-11-29T09:05:00.661Z,16.49
2022-11-29T09:05:11.948Z,16.50
2022-11-29T09:05:23.490Z,16.50
2022-11-29T09:05:34.778Z,16.50
2022-11-29T09:05:46.329Z,16.51
2022-11-29T09:05:57.674Z,16.51
2022-11-29T09:06:12.539Z,16.51
2022-11-29T09:06:19.933Z,16.51
2022-11-29T09:06:31.230Z,16.51
2022-11-29T09:06:42.772Z,16.52
2022-11-29T09:06:54.059Z,16.52
2022-11-29T09:07:05.610Z,16.52
2022-11-29T09:07:16.998Z,16.52
2022-11-29T09:07:28.613Z,16.53
2022-11-29T09:07:40.055Z,16.53
2022-11-29T09:07:51.737Z,16.53
2022-11-29T09:08:03.059Z,16.53
2022-11-29T09:08:14.603Z,16.54
2022-11-29T09:08:25.897Z,16.54
2022-11-29T09:08:37.451Z,16.55
2022-11-29T09:08:48.751Z,16.54
2022-11-29T09:09:00.289Z,16.56
2022-11-29T09:09:11.562Z,16.55
2022-11-29T09:09:23.108Z,16.56
2022-11-29T09:09:34.397Z,16.55
2022-11-29T09:09:45.935Z,16.56
2022-11-29T09:09:57.212Z,16.56
2022-11-29T09:10:08.765Z,16.55
2022-11-29T09:10:20.045Z,16.56
2022-11-29T09:10:31.596Z,16.56
2022-11-29T09:10:42.883Z,16.57
2022-11-29T09:10:54.418Z,16.57
2022-11-29T09:11:05.715Z,16.58
2022-11-29T09:11:17.267Z,16.57
2022-11-29T09:11:28.570Z,16.58
2022-11-29T09:11:40.129Z,16.58
2022-11-29T09:11:51.425Z,16.58
2022-11-29T09:12:02.975Z,16.59
2022-11-29T09:12:14.260Z,16.58
2022-11-29T09:12:25.807Z,16.59
2022-11-29T09:12:37.101Z,16.59
2022-11-29T09:12:48.701Z,16.59
2022-11-29T09:12:59.985Z,16.60
2022-11-29T09:13:11.528Z,16.60
2022-11-29T09:13:22.811Z,16.60
2022-11-29T09:13:34.360Z,16.60
2022-11-29T09:13:45.641Z,16.60
2022-11-29T09:13:57.182Z,16.61
2022-11-29T09:14:08.486Z,16.61
2022-11-29T09:14:20.031Z,16.61
2022-11-29T09:14:31.334Z,16.61
2022-11-29T09:14:43.117Z,16.62
2022-11-29T09:14:54.584Z,16.61
2022-11-29T09:15:06.126Z,16.62
2022-11-29T09:15:17.411Z,16.63
2022-11-29T09:15:28.976Z,16.62
2022-11-29T09:15:40.265Z,16.63
2022-11-29T09:15:51.838Z,16.63
2022-11-29T09:16:03.201Z,16.63
2022-11-29T09:16:14.829Z,16.63
2022-11-29T09:16:26.232Z,16.63
2022-11-29T09:16:37.863Z,16.64
2022-11-29T09:16:49.274Z,16.64
2022-11-29T09:17:00.850Z,16.64
2022-11-29T09:17:12.125Z,16.64
2022-11-29T09:17:23.666Z,16.65
2022-11-29T09:17:34.962Z,16.65
2022-11-29T09:17:46.507Z,16.65
2022-11-29T09:17:57.840Z,16.66
2022-11-29T09:18:09.405Z,16.66
2022-11-29T09:18:20.694Z,16.66
2022-11-29T09:18:32.244Z,16.66
2022-11-29T09:18:48.540Z,16.67
2022-11-29T09:18:55.455Z,16.64
2022-11-29T09:19:06.743Z,16.65
2022-11-29T09:19:18.321Z,16.66
2022-11-29T09:19:29.616Z,16.67
2022-11-29T09:19:41.168Z,16.67
2022-11-29T09:19:52.453Z,16.67
2022-11-29T09:20:03.998Z,16.68
2022-11-29T09:20:15.294Z,16.68
2022-11-29T09:20:26.839Z,16.69
2022-11-29T09:20:38.121Z,16.69
2022-11-29T09:20:49.681Z,16.69
2022-11-29T09:21:00.956Z,16.70
2022-11-29T09:21:12.499Z,16.69
2022-11-29T09:21:23.781Z,16.70
2022-11-29T09:21:35.317Z,16.69
2022-11-29T09:21:46.605Z,16.70
2022-11-29T09:21:58.189Z,16.70
2022-11-29T09:22:09.476Z,16.71
2022-11-29T09:22:21.010Z,16.70
2022-11-29T09:22:32.296Z,16.71
2022-11-29T09:22:43.851Z,16.71
2022-11-29T09:22:55.149Z,16.71
2022-11-29T09:23:06.725Z,16.71
2022-11-29T09:23:18.001Z,16.72
2022-11-29T09:23:29.535Z,16.72
2022-11-29T09:23:40.811Z,16.72
2022-11-29T09:23:52.353Z,16.72
2022-11-29T09:24:03.643Z,16.72
2022-11-29T09:24:15.179Z,16.73
2022-11-29T09:24:26.471Z,16.73
2022-11-29T09:24:38.011Z,16.74
2022-11-29T09:24:49.291Z,16.74
2022-11-29T09:25:00.838Z,16.74
2022-11-29T09:25:12.135Z,16.74
2022-11-29T09:25:23.674Z,16.74
2022-11-29T09:25:34.962Z,16.74
2022-11-29T09:25:46.501Z,16.74
2022-11-29T09:25:57.779Z,16.75
2022-11-29T09:26:09.311Z,16.75
2022-11-29T09:26:20.588Z,16.75
2022-11-29T09:26:32.120Z,16.75
2022-11-29T09:26:43.398Z,16.75
2022-11-29T09:26:54.938Z,16.75
2022-11-29T09:27:06.238Z,16.76
2022-11-29T09:27:17.779Z,16.77
2022-11-29T09:27:29.060Z,16.76
2022-11-29T09:27:40.615Z,16.77
2022-11-29T09:27:51.898Z,16.76
2022-11-29T09:28:03.439Z,16.77
2022-11-29T09:28:14.755Z,16.77
2022-11-29T09:28:26.294Z,16.77
2022-11-29T09:28:37.589Z,16.77
2022-11-29T09:28:49.135Z,16.77
2022-11-29T09:29:00.420Z,16.78
2022-11-29T09:29:11.957Z,16.78
2022-11-29T09:29:23.246Z,16.77
2022-11-29T09:29:34.791Z,16.78
2022-11-29T09:29:46.075Z,16.78
2022-11-29T09:29:57.623Z,16.78
2022-11-29T09:30:08.899Z,16.79
2022-11-29T09:30:23.688Z,16.79
2022-11-29T09:30:31.001Z,16.78
2022-11-29T09:30:42.283Z,16.79
2022-11-29T09:30:53.826Z,16.79
2022-11-29T09:31:05.132Z,16.79
2022-11-29T09:31:16.759Z,16.79
2022-11-29T09:31:28.120Z,16.80
2022-11-29T09:31:39.738Z,16.80
2022-11-29T09:31:51.095Z,16.80
2022-11-29T09:32:02.721Z,16.80
2022-11-29T09:32:14.051Z,16.81
2022-11-29T09:32:25.596Z,16.81
2022-11-29T09:32:36.913Z,16.81
2022-11-29T09:32:48.464Z,16.81
2022-11-29T09:32:59.741Z,16.81
2022-11-29T09:33:11.280Z,16.82
2022-11-29T09:33:22.589Z,16.82
2022-11-29T09:33:34.147Z,16.82
2022-11-29T09:33:45.431Z,16.82
2022-11-29T09:33:56.969Z,16.82
2022-11-29T09:34:08.250Z,16.83
2022-11-29T09:34:19.801Z,16.82
2022-11-29T09:34:31.097Z,16.83
2022-11-29T09:34:42.823Z,16.83
2022-11-29T09:34:54.264Z,16.83
2022-11-29T09:35:05.799Z,16.84
2022-11-29T09:35:17.077Z,16.84
2022-11-29T09:35:28.617Z,16.84
2022-11-29T09:35:39.901Z,16.85
2022-11-29T09:35:51.448Z,16.84
2022-11-29T09:36:02.734Z,16.85
2022-11-29T09:36:14.278Z,16.85
2022-11-29T09:36:28.936Z,16.85
2022-11-29T09:36:36.329Z,16.83
2022-11-29T09:36:47.604Z,16.85
2022-11-29T09:36:59.150Z,16.85
2022-11-29T09:37:10.441Z,16.85
2022-11-29T09:37:22.008Z,16.85
2022-11-29T09:37:33.297Z,16.86
2022-11-29T09:37:44.830Z,16.86
2022-11-29T09:37:56.110Z,16.86
2022-11-29T09:38:07.640Z,16.87
2022-11-29T09:38:19.256Z,16.87
2022-11-29T09:38:30.817Z,16.87
2022-11-29T09:38:42.095Z,16.87
2022-11-29T09:38:53.634Z,16.87
2022-11-29T09:39:04.920Z,16.88
2022-11-29T09:39:16.445Z,16.88
2022-11-29T09:39:27.730Z,16.88
2022-11-29T09:39:39.286Z,16.88
2022-11-29T09:39:50.579Z,16.88
2022-11-29T09:40:02.130Z,16.89
2022-11-29T09:40:13.426Z,16.89
2022-11-29T09:40:24.966Z,16.89
2022-11-29T09:40:36.243Z,16.89
2022-11-29T09:40:47.779Z,16.89
2022-11-29T09:40:59.053Z,16.89
2022-11-29T09:41:10.715Z,16.89
2022-11-29T09:41:22.013Z,16.90
2022-11-29T09:41:33.566Z,16.90
2022-11-29T09:41:48.374Z,16.91
2022-11-29T09:41:55.842Z,16.89
2022-11-29T09:42:07.138Z,16.89
2022-11-29T09:42:18.683Z,16.90
2022-11-29T09:42:29.970Z,16.90
2022-11-29T09:42:41.512Z,16.90
2022-11-29T09:42:52.794Z,16.91
2022-11-29T09:43:04.339Z,16.92
2022-11-29T09:43:15.632Z,16.92
2022-11-29T09:43:27.185Z,16.92
2022-11-29T09:43:38.510Z,16.91
2022-11-29T09:43:50.070Z,16.92
2022-11-29T09:44:01.369Z,16.92
2022-11-29T09:44:12.910Z,16.92
2022-11-29T09:44:24.183Z,16.92
2022-11-29T09:44:35.720Z,16.93
2022-11-29T09:44:47.342Z,16.93
2022-11-29T09:44:59.078Z,16.93
2022-11-29T09:45:10.365Z,16.93
2022-11-29T09:45:21.933Z,16.94
2022-11-29T09:45:33.309Z,16.93
2022-11-29T09:45:44.871Z,16.94
2022-11-29T09:45:56.191Z,16.95
2022-11-29T09:46:07.854Z,16.95
2022-11-29T09:46:19.176Z,16.95
2022-11-29T09:46:30.727Z,16.95
2022-11-29T09:46:42.003Z,16.95
2022-11-29T09:46:58.536Z,16.96
2022-11-29T09:47:05.471Z,16.93
2022-11-29T09:47:16.744Z,16.95
2022-11-29T09:47:28.308Z,16.95
2022-11-29T09:47:39.607Z,16.96
2022-11-29T09:47:51.160Z,16.95
2022-11-29T09:48:02.452Z,16.95
2022-11-29T09:48:14.000Z,16.96
2022-11-29T09:48:25.290Z,16.97
2022-11-29T09:48:36.845Z,16.96
2022-11-29T09:48:48.297Z,16.97
2022-11-29T09:48:59.847Z,16.97
2022-11-29T09:49:11.134Z,16.97
2022-11-29T09:49:22.670Z,16.98
2022-11-29T09:49:33.968Z,16.97
2022-11-29T09:49:45.515Z,16.98
2022-11-29T09:49:56.799Z,16.98
2022-11-29T09:50:08.354Z,16.98
2022-11-29T09:50:19.754Z,16.98
2022-11-29T09:50:31.342Z,16.99
2022-11-29T09:50:42.619Z,16.98
2022-11-29T09:50:54.155Z,16.99
2022-11-29T09:51:05.428Z,16.99
2022-11-29T09:51:16.968Z,16.99
2022-11-29T09:51:28.265Z,16.99
2022-11-29T09:51:44.022Z,17.00
2022-11-29T09:51:51.500Z,16.98
2022-11-29T09:52:02.797Z,16.99
2022-11-29T09:52:14.342Z,16.99
2022-11-29T09:52:25.614Z,17.00
2022-11-29T09:52:37.153Z,16.99
2022-11-29T09:52:48.442Z,17.00
2022-11-29T09:52:59.986Z,17.01
2022-11-29T09:53:11.260Z,17.01
2022-11-29T09:53:22.802Z,17.01
2022-11-29T09:53:34.099Z,17.01
2022-11-29T09:53:45.642Z,17.01
2022-11-29T09:53:56.975Z,17.02
2022-11-29T09:54:08.516Z,17.01
2022-11-29T09:54:19.790Z,17.02
2022-11-29T09:54:31.319Z,17.02
2022-11-29T09:54:43.082Z,17.02
2022-11-29T09:54:54.828Z,17.02
2022-11-29T09:55:06.111Z,17.02
2022-11-29T09:55:17.641Z,17.03
2022-11-29T09:55:28.931Z,17.02
2022-11-29T09:55:40.493Z,17.03
2022-11-29T09:55:51.774Z,17.03
2022-11-29T09:56:03.311Z,17.04
2022-11-29T09:56:14.607Z,17.04
2022-11-29T09:56:26.160Z,17.03
2022-11-29T09:56:37.462Z,17.04
2022-11-29T09:56:49.015Z,17.04
2022-11-29T09:57:00.311Z,17.04
2022-11-29T09:57:11.885Z,17.05
2022-11-29T09:57:23.187Z,17.05
2022-11-29T09:57:34.749Z,17.04
2022-11-29T09:57:46.043Z,17.05
2022-11-29T09:57:57.593Z,17.05
2022-11-29T09:58:08.885Z,17.05
2022-11-29T09:58:20.435Z,17.05
2022-11-29T09:58:31.726Z,17.05
2022-11-29T09:58:43.288Z,17.06
2022-11-29T09:58:54.572Z,17.06
2022-11-29T09:59:06.134Z,17.06
2022-11-29T09:59:17.419Z,17.06
2022-11-29T09:59:29.056Z,17.06
2022-11-29T09:59:40.384Z,17.07
2022-11-29T09:59:51.921Z,17.07
2022-11-29T10:00:03.217Z,17.07
2022-11-29T10:00:14.757Z,17.07
2022-11-29T10:00:26.034Z,17.07
2022-11-29T10:00:37.582Z,17.07
2022-11-29T10:00:48.915Z,17.07
2022-11-29T10:01:00.558Z,17.08
2022-11-29T10:01:12.024Z,17.08
2022-11-29T10:01:23.658Z,17.08
2022-11-29T10:01:35.045Z,17.08
2022-11-29T10:01:46.595Z,17.09
2022-11-29T10:01:57.950Z,17.08
2022-11-29T10:02:09.598Z,17.09
2022-11-29T10:02:21.884Z,17.08
2022-11-29T10:02:31.351Z,17.09
2022-11-29T10:02:43.004Z,17.09
2022-11-29T10:02:54.395Z,17.09
2022-11-29T10:03:05.976Z,17.10
2022-11-29T10:03:17.257Z,17.10
2022-11-29T10:03:28.805Z,17.10
2022-11-29T10:03:40.098Z,17.10
2022-11-29T10:03:51.643Z,17.10
2022-11-29T10:04:02.942Z,17.10
2022-11-29T10:04:14.539Z,17.10
2022-11-29T10:04:25.833Z,17.11
2022-11-29T10:04:37.382Z,17.11
2022-11-29T10:04:48.689Z,17.11
2022-11-29T10:05:00.241Z,17.12
2022-11-29T10:05:11.545Z,17.11
2022-11-29T10:05:23.099Z,17.12
2022-11-29T10:05:34.387Z,17.12
2022-11-29T10:05:45.933Z,17.12
2022-11-29T10:05:57.237Z,17.12
2022-11-29T10:06:08.779Z,17.12
2022-11-29T10:06:20.050Z,17.12
2022-11-29T10:06:31.592Z,17.13
2022-11-29T10:06:42.899Z,17.13
2022-11-29T10:06:54.459Z,17.13
2022-11-29T10:07:05.743Z,17.13
2022-11-29T10:07:17.348Z,17.13
2022-11-29T10:07:28.694Z,17.14
2022-11-29T10:07:40.325Z,17.14
2022-11-29T10:07:51.707Z,17.14
2022-11-29T10:08:03.297Z,17.13
2022-11-29T10:08:14.582Z,17.14
2022-11-29T10:08:26.117Z,17.15
2022-11-29T10:08:37.393Z,17.14
2022-11-29T10:08:48.938Z,17.15
2022-11-29T10:09:00.233Z,17.15
2022-11-29T10:09:11.808Z,17.16
2022-11-29T10:09:23.194Z,17.15
2022-11-29T10:09:34.729Z,17.15
2022-11-29T10:09:46.010Z,17.16
2022-11-29T10:09:57.574Z,17.16
2022-11-29T10:10:08.864Z,17.16
2022-11-29T10:10:20.397Z,17.16
2022-11-29T10:10:31.681Z,17.17
2022-11-29T10:10:43.234Z,17.17
2022-11-29T10:10:54.517Z,17.17
2022-11-29T10:11:06.050Z,17.17
2022-11-29T10:11:17.328Z,17.18
2022-11-29T10:11:28.867Z,17.17
2022-11-29T10:11:40.152Z,17.17
2022-11-29T10:11:51.695Z,17.19
2022-11-29T10:12:02.988Z,17.18
2022-11-29T10:12:14.533Z,17.18
2022-11-29T10:12:25.815Z,17.18
2022-11-29T10:12:37.364Z,17.19
2022-11-29T10:12:48.656Z,17.19
2022-11-29T14:50:51.443Z,17.03